Eagle Crest, Oregon
Current Conditions -  °F | °C
As of 4:56 PM on Monday 20 Oct 2014 (Local Time) from KRDM Reporting Station
Scattered Clouds Scattered Clouds  
Wind Chill: 50°   Ceiling: Unl
Heat Index: 50°   Visibility: 10mi
Dew Point: 45°   Wind: 3mph
Humidity: 83%   Direction: 80°E
Pressure: 29.84"   Gusts: NA
Location:  44.2779°N, 121.217°W
Report Text: KRDM 202356Z 08003KT 10SM SCT085 10/07 A2984 RMK AO2 SLP101 60006 T01000072 10172 20089 50009
Loading
Personal Weather Stations






























Interactive Weather Map
Tropical Storm Tracking
New forecast layout! Learn more

10-Day Weather Forecast

Advertisements
Track Severe Weather on mobile